TimeEST,TemperatureF,Dew PointF,Humidity,Sea Level PressureIn,VisibilityMPH,Wind Direction,Wind SpeedMPH,Gust SpeedMPH,PrecipitationIn,Events,Conditions,WindDirDegrees,DateUTC
12:15 AM,41.0,24.8,53,30.18,10.0,WNW,4.6,-,N/A,,Clear,290,1998-12-31 05:15:00
12:35 AM,37.4,24.8,60,30.19,10.0,WNW,4.6,-,N/A,,Clear,300,1998-12-31 05:35:00
12:55 AM,39.2,24.8,56,30.18,10.0,WNW,5.8,-,N/A,,Clear,300,1998-12-31 05:55:00
1:15 AM,37.4,24.8,60,30.18,10.0,NW,6.9,-,N/A,,Clear,310,1998-12-31 06:15:00
1:35 AM,37.4,24.8,60,30.18,10.0,NW,5.8,-,N/A,,Clear,310,1998-12-31 06:35:00
2:15 AM,39.2,24.8,56,30.18,10.0,WNW,5.8,-,N/A,,Clear,300,1998-12-31 07:15:00
2:55 AM,39.2,24.8,56,30.19,10.0,WNW,5.8,-,N/A,,Clear,300,1998-12-31 07:55:00
3:15 AM,39.2,24.8,56,30.19,10.0,WNW,5.8,-,N/A,,Clear,300,1998-12-31 08:15:00
4:15 AM,37.4,24.8,60,30.19,10.0,NW,4.6,-,N/A,,Clear,320,1998-12-31 09:15:00
4:35 AM,37.4,24.8,60,30.19,10.0,NW,5.8,-,N/A,,Clear,310,1998-12-31 09:35:00
5:15 AM,35.6,24.8,65,30.19,10.0,NW,4.6,-,N/A,,Clear,310,1998-12-31 10:15:00
5:35 AM,39.2,26.6,61,30.19,10.0,Calm,Calm,-,N/A,,Clear,0,1998-12-31 10:35:00
5:55 AM,37.4,26.6,65,30.19,10.0,Calm,Calm,-,N/A,,Clear,0,1998-12-31 10:55:00
6:35 AM,35.6,26.6,70,30.19,10.0,Calm,Calm,-,N/A,,Clear,0,1998-12-31 11:35:00
6:55 AM,35.6,26.6,70,30.20,10.0,Calm,Calm,-,N/A,,Clear,0,1998-12-31 11:55:00
7:15 AM,37.4,26.6,65,30.20,10.0,Calm,Calm,-,N/A,,Clear,0,1998-12-31 12:15:00
7:35 AM,35.6,26.6,70,30.21,10.0,Calm,Calm,-,N/A,,Clear,0,1998-12-31 12:35:00
8:15 AM,39.2,28.4,65,30.21,10.0,Calm,Calm,-,N/A,,Clear,0,1998-12-31 13:15:00
9:15 AM,48.2,33.8,58,30.23,10.0,NW,3.5,-,N/A,,Clear,320,1998-12-31 14:15:00
9:35 AM,51.8,33.8,50,30.24,10.0,Calm,Calm,-,N/A,,Clear,0,1998-12-31 14:35:00
9:55 AM,55.4,35.6,47,30.24,10.0,WNW,3.5,-,N/A,,Clear,300,1998-12-31 14:55:00
10:35 AM,57.2,33.8,41,30.25,10.0,NW,5.8,-,N/A,,Clear,310,1998-12-31 15:35:00
10:55 AM,59.0,33.8,39,30.24,10.0,NW,5.8,-,N/A,,Clear,320,1998-12-31 15:55:00
11:15 AM,60.8,33.8,36,30.24,10.0,WNW,6.9,-,9.08,,Clear,290,1998-12-31 16:15:00
12:15 PM,62.6,37.4,39,30.21,10.0,SW,4.6,-,N/A,,Clear,220,1998-12-31 17:15:00
12:35 PM,62.6,37.4,39,30.20,10.0,West,5.8,-,N/A,,Clear,280,1998-12-31 17:35:00
12:55 PM,62.6,39.2,42,30.19,10.0,Calm,Calm,-,N/A,,Clear,0,1998-12-31 17:55:00
1:55 PM,62.6,41.0,45,30.16,10.0,East,10.4,-,N/A,,Clear,80,1998-12-31 18:55:00
2:35 PM,60.8,41.0,48,30.14,10.0,East,8.1,-,N/A,,Clear,80,1998-12-31 19:35:00
3:15 PM,60.8,41.0,48,30.14,10.0,East,5.8,-,N/A,,Clear,80,1998-12-31 20:15:00
3:55 PM,60.8,41.0,48,30.16,10.0,ENE,8.1,-,N/A,,Clear,60,1998-12-31 20:55:00
4:35 PM,60.8,42.8,52,30.16,10.0,ENE,8.1,-,N/A,,Clear,70,1998-12-31 21:35:00
4:55 PM,59.0,41.0,51,30.16,10.0,East,5.8,-,N/A,,Clear,80,1998-12-31 21:55:00
5:15 PM,57.2,42.8,59,30.17,10.0,East,4.6,-,N/A,,Clear,80,1998-12-31 22:15:00
5:35 PM,57.2,41.0,55,30.17,10.0,NNE,3.5,-,N/A,,Clear,30,1998-12-31 22:35:00
6:35 PM,53.6,41.0,62,30.17,10.0,Calm,Calm,-,N/A,,Clear,0,1998-12-31 23:35:00
6:55 PM,51.8,41.0,67,30.17,10.0,NNW,4.6,-,N/A,,Clear,340,1998-12-31 23:55:00
7:15 PM,51.8,41.0,67,30.17,10.0,NNW,4.6,-,N/A,,Clear,340,1999-01-01 00:15:00
8:55 PM,48.2,39.2,71,30.19,10.0,Calm,Calm,-,N/A,,Clear,0,1999-01-01 01:55:00
9:55 PM,44.6,37.4,76,30.19,10.0,Calm,Calm,-,N/A,,Clear,0,1999-01-01 02:55:00
10:15 PM,46.4,37.4,71,30.19,10.0,Calm,Calm,-,N/A,,Clear,0,1999-01-01 03:15:00
10:35 PM,44.6,35.6,71,30.19,10.0,Calm,Calm,-,N/A,,Clear,0,1999-01-01 03:35:00